Matagami Airport

CYNM | YNM

Matagami , Quebec , Canada

Thursday, October 24th, 2019 | 00:51

Weather

CYNM 240441Z AUTO 23009KT 9SM OVC026 07/04 A2969 RMK SLP067

Charts

No Charts Available

Gates

No Gates Available

Runways

1 Available

Events

No events for this airport


New event